Time;durP1;ratioP1;P1;durP2;ratioP2;P2;SDS_P1;SDS_P2;PMS_P1;PMS_P2;Temp;Humidity;BMP_temperature;BMP_pressure;BME280_temperature;BME280_humidity;BME280_pressure;Samples;Min_cycle;Max_cycle;Signal;HPM_P1;HPM_P2
2023/09/24 00:00:26;;;;;;;4.53;3.20;;;;;;;14.02;79.84;101521.47;5096342;28;20287;-74
2023/09/24 00:02:57;;;;;;;4.23;3.30;;;;;;;13.90;80.91;101516.53;5096283;28;20209;-75
2023/09/24 00:05:26;;;;;;;9.17;3.87;;;;;;;13.88;81.39;101515.84;5096000;28;20189;-74
2023/09/24 00:07:54;;;;;;;5.47;3.80;;;;;;;13.81;81.65;101520.19;5096193;28;20255;-75
2023/09/24 00:10:23;;;;;;;6.73;3.73;;;;;;;13.68;82.53;101524.19;5096236;28;20288;-75
2023/09/24 00:12:53;;;;;;;6.20;3.90;;;;;;;13.76;82.58;101526.09;5095814;28;20224;-74
2023/09/24 00:15:21;;;;;;;6.17;3.97;;;;;;;13.77;82.32;101532.31;5096020;28;20204;-74
2023/09/24 00:17:50;;;;;;;5.53;3.70;;;;;;;13.83;82.02;101537.88;5095987;28;20225;-74
2023/09/24 00:20:21;;;;;;;4.30;3.90;;;;;;;13.83;81.77;101528.97;5096043;28;20205;-74
2023/09/24 00:22:49;;;;;;;5.37;3.83;;;;;;;13.85;81.87;101541.25;5096127;28;20213;-74
2023/09/24 00:25:18;;;;;;;4.80;3.87;;;;;;;13.90;81.72;101538.06;5095659;28;20250;-74
2023/09/24 00:27:46;;;;;;;6.73;3.60;;;;;;;13.92;81.91;101541.44;5095755;28;20200;-75
2023/09/24 00:30:15;;;;;;;5.53;3.80;;;;;;;13.96;81.58;101543.66;5095592;28;20754;-74
2023/09/24 00:32:43;;;;;;;5.37;4.27;;;;;;;13.95;81.76;101541.97;5095763;28;20291;-74
2023/09/24 00:35:12;;;;;;;7.47;4.43;;;;;;;13.81;82.87;101533.66;5095786;28;20209;-74
2023/09/24 00:37:42;;;;;;;7.10;3.93;;;;;;;13.86;82.81;101542.09;5095571;28;20252;-74
2023/09/24 00:40:12;;;;;;;4.73;3.90;;;;;;;13.85;83.07;101543.09;5096489;28;20616;-74
2023/09/24 00:42:40;;;;;;;5.27;3.80;;;;;;;13.87;82.70;101544.59;5095558;28;20201;-74
2023/09/24 00:45:14;;;;;;;6.93;3.93;;;;;;;13.90;82.42;101549.69;5095635;28;20231;-74
2023/09/24 00:47:43;;;;;;;5.50;3.83;;;;;;;13.94;82.62;101551.03;5095492;28;20190;-74
2023/09/24 00:50:12;;;;;;;5.17;3.70;;;;;;;13.97;82.34;101556.09;5095001;28;20689;-74
2023/09/24 00:52:44;;;;;;;6.33;3.90;;;;;;;13.96;82.77;101559.81;5095324;28;20208;-74
2023/09/24 00:55:15;;;;;;;5.13;3.80;;;;;;;13.96;83.24;101548.19;5095078;28;20231;-74
2023/09/24 00:57:47;;;;;;;5.87;3.47;;;;;;;13.99;82.62;101558.63;5095328;28;20220;-74
2023/09/24 01:00:19;;;;;;;5.87;4.30;;;;;;;13.98;83.04;101562.31;5095325;28;20309;-74
2023/09/24 01:02:50;;;;;;;6.03;4.07;;;;;;;14.01;82.71;101567.38;5094924;28;20720;-74
2023/09/24 01:05:19;;;;;;;6.03;4.43;;;;;;;14.02;82.71;101569.06;5095310;28;20197;-74
2023/09/24 01:07:49;;;;;;;7.47;6.30;;;;;;;13.89;83.97;101563.31;5095082;28;20204;-74
2023/09/24 01:10:18;;;;;;;4.47;3.77;;;;;;;13.92;84.08;101558.44;5095001;28;20200;-75
2023/09/24 01:12:58;;;;;;;6.53;4.40;;;;;;;13.91;84.42;101566.66;5094958;28;20230;-75
2023/09/24 01:15:28;;;;;;;7.23;4.07;;;;;;;13.91;84.44;101562.13;5095067;28;20193;-74
2023/09/24 01:17:57;;;;;;;5.90;4.03;;;;;;;13.91;84.79;101567.50;5094932;28;20260;-75
2023/09/24 01:20:31;;;;;;;7.67;4.17;;;;;;;13.96;84.14;101577.81;5094626;28;20643;-75
2023/09/24 01:23:04;;;;;;;7.53;5.00;;;;;;;13.92;84.72;101579.13;5095163;28;20228;-74
2023/09/24 01:25:36;;;;;;;6.97;4.93;;;;;;;13.90;85.42;101583.84;5095144;28;20283;-74
2023/09/24 01:28:06;;;;;;;6.33;5.67;;;;;;;13.83;86.03;101588.19;5094728;28;20335;-74
2023/09/24 01:30:35;;;;;;;5.73;5.20;;;;;;;13.92;85.07;101584.50;5094679;28;20207;-74
2023/09/24 01:33:06;;;;;;;8.10;7.07;;;;;;;13.89;85.95;101579.47;5095146;28;20225;-74
2023/09/24 01:35:36;;;;;;;8.53;7.63;;;;;;;13.85;86.29;101592.38;5094742;28;20258;-74
2023/09/24 01:38:08;;;;;;;10.70;7.30;;;;;;;13.83;86.29;101583.66;5094212;28;20228;-74
2023/09/24 01:40:38;;;;;;;7.60;6.87;;;;;;;13.84;86.25;101593.38;5094488;28;20281;-74
2023/09/24 01:43:07;;;;;;;8.40;7.10;;;;;;;13.87;86.19;101587.69;5094437;28;20220;-74
2023/09/24 01:45:40;;;;;;;8.47;7.23;;;;;;;13.88;86.31;101591.22;5094455;28;20228;-74
2023/09/24 01:48:08;;;;;;;8.73;7.70;;;;;;;13.83;86.63;101588.19;5094785;28;20185;-74
2023/09/24 01:50:37;;;;;;;7.77;6.97;;;;;;;13.85;86.37;101591.53;5094098;28;20220;-74
2023/09/24 01:53:08;;;;;;;8.73;7.50;;;;;;;13.82;86.81;101591.88;5094217;28;20225;-74
2023/09/24 01:55:37;;;;;;;9.97;7.37;;;;;;;13.86;86.54;101591.41;5094309;28;20284;-74
2023/09/24 01:58:06;;;;;;;10.20;7.47;;;;;;;13.83;87.00;101596.25;5093774;28;20795;-74
2023/09/24 02:00:36;;;;;;;8.77;7.10;;;;;;;13.89;86.64;101595.59;5093699;28;20304;-74
2023/09/24 02:03:07;;;;;;;8.73;7.17;;;;;;;13.91;86.49;101593.59;5093840;28;20221;-74
2023/09/24 02:05:38;;;;;;;9.33;7.40;;;;;;;13.90;86.64;101600.00;5094068;28;20197;-74
2023/09/24 02:08:09;;;;;;;13.47;7.30;;;;;;;13.90;86.12;101603.53;5094112;28;20267;-74
2023/09/24 02:10:40;;;;;;;9.00;7.20;;;;;;;13.92;86.54;101603.34;5094026;28;20189;-74
2023/09/24 02:13:09;;;;;;;8.67;6.53;;;;;;;13.91;86.10;101604.34;5093941;28;20227;-74
2023/09/24 02:15:39;;;;;;;7.27;6.17;;;;;;;13.88;86.56;101610.06;5094110;28;20266;-74
2023/09/24 02:18:09;;;;;;;7.57;6.80;;;;;;;13.90;85.96;101608.06;5093505;28;20771;-74
2023/09/24 02:20:41;;;;;;;7.83;6.17;;;;;;;13.88;85.28;101610.06;5093500;28;20215;-74
2023/09/24 02:23:12;;;;;;;8.37;6.30;;;;;;;13.87;85.54;101622.66;5093764;28;20260;-74
2023/09/24 02:25:44;;;;;;;9.10;6.50;;;;;;;13.85;84.71;101630.06;5093818;28;20276;-74
2023/09/24 02:28:13;;;;;;;9.23;7.47;;;;;;;13.86;85.54;101633.63;5093772;28;20251;-75
2023/09/24 02:30:42;;;;;;;7.90;6.43;;;;;;;13.90;85.32;101632.28;5093333;28;20201;-74
2023/09/24 02:33:11;;;;;;;11.23;7.27;;;;;;;13.87;85.70;101635.31;5093655;28;20309;-74
2023/09/24 02:35:39;;;;;;;8.97;7.43;;;;;;;13.82;86.37;101634.94;5093501;28;20254;-75
2023/09/24 02:38:10;;;;;;;9.00;6.63;;;;;;;13.85;86.04;101634.59;5093579;28;20294;-74
2023/09/24 02:40:40;;;;;;;6.90;6.20;;;;;;;13.84;86.23;101635.59;5093252;28;20669;-74
2023/09/24 02:43:08;;;;;;;8.60;7.20;;;;;;;13.82;86.67;101630.41;5093513;28;20231;-74
2023/09/24 02:45:37;;;;;;;11.77;7.80;;;;;;;13.83;87.15;101639.31;5093480;28;20209;-74
2023/09/24 02:48:06;;;;;;;8.70;7.07;;;;;;;13.83;86.94;101639.31;5093483;28;20610;-74
2023/09/24 02:50:35;;;;;;;9.73;7.57;;;;;;;13.84;86.28;101635.59;5093138;28;20208;-74
2023/09/24 02:53:04;;;;;;;8.03;7.33;;;;;;;13.80;86.80;101634.25;5093300;28;20252;-74
2023/09/24 02:55:33;;;;;;;12.20;7.20;;;;;;;13.77;86.70;101635.41;5093174;28;20582;-74
2023/09/24 02:58:05;;;;;;;8.83;7.20;;;;;;;13.76;86.91;101638.25;5093328;28;20299;-74
2023/09/24 03:00:36;;;;;;;10.23;7.77;;;;;;;13.75;87.06;101641.94;5093396;28;20193;-74
2023/09/24 03:03:06;;;;;;;8.07;7.20;;;;;;;13.75;86.75;101642.81;5093472;28;20582;-74
2023/09/24 03:05:35;;;;;;;8.70;7.33;;;;;;;13.78;86.50;101652.41;5093033;28;20605;-74
2023/09/24 03:08:05;;;;;;;8.27;7.47;;;;;;;13.77;85.97;101658.81;5093354;28;20213;-74
2023/09/24 03:10:36;;;;;;;13.33;7.07;;;;;;;13.76;86.91;101654.41;5093400;28;20193;-74
2023/09/24 03:13:06;;;;;;;7.77;7.07;;;;;;;13.78;86.74;101652.41;5094262;28;20224;-74
2023/09/24 03:15:35;;;;;;;10.73;7.10;;;;;;;13.79;86.69;101665.72;5097331;28;20209;-74
2023/09/24 03:18:04;;;;;;;7.73;7.03;;;;;;;13.79;86.88;101659.47;5097239;28;20261;-74
2023/09/24 03:20:32;;;;;;;8.50;7.07;;;;;;;13.73;86.51;101676.28;5097272;28;20208;-74
2023/09/24 03:23:03;;;;;;;7.73;7.00;;;;;;;13.78;86.59;101674.78;5096732;28;20231;-74
2023/09/24 03:25:32;;;;;;;8.90;7.07;;;;;;;13.82;86.87;101678.00;5097100;28;20189;-75
2023/09/24 03:28:01;;;;;;;8.27;7.10;;;;;;;13.79;86.81;101686.41;5097018;28;20209;-74
2023/09/24 03:30:31;;;;;;;7.33;6.13;;;;;;;13.81;86.29;101687.91;5096687;28;20727;-74
2023/09/24 03:33:00;;;;;;;7.90;6.57;;;;;;;13.81;86.27;101679.84;5096550;28;20644;-75
2023/09/24 03:35:29;;;;;;;8.33;6.73;;;;;;;13.83;86.26;101687.78;5096937;28;20207;-74
2023/09/24 03:37:59;;;;;;;8.13;6.77;;;;;;;13.77;86.82;101689.22;5096869;28;20564;-74
2023/09/24 03:40:29;;;;;;;8.23;7.40;;;;;;;13.69;87.46;101703.50;5096734;28;20220;-74
2023/09/24 03:42:59;;;;;;;11.53;7.00;;;;;;;13.66;88.06;101703.78;5097247;28;20591;-74
2023/09/24 03:45:27;;;;;;;7.57;6.80;;;;;;;13.66;87.78;101708.34;5096777;28;20212;-74
2023/09/24 03:47:57;;;;;;;9.67;7.40;;;;;;;13.58;87.76;101714.50;5096599;28;20292;-74
2023/09/24 03:50:26;;;;;;;8.30;6.70;;;;;;;13.53;88.89;101715.94;5096240;28;20616;-74
2023/09/24 03:52:56;;;;;;;8.20;7.40;;;;;;;13.53;88.00;101715.94;5096516;28;20211;-74
2023/09/24 03:55:25;;;;;;;7.77;6.70;;;;;;;13.45;88.64;101722.13;5096512;28;20211;-74
2023/09/24 03:57:54;;;;;;;7.33;6.63;;;;;;;13.44;88.82;101715.06;5096549;28;20243;-74
2023/09/24 04:00:25;;;;;;;7.17;6.33;;;;;;;13.47;88.74;101714.75;5096065;28;20231;-74
2023/09/24 04:02:55;;;;;;;9.17;6.37;;;;;;;13.45;88.68;101716.75;5096311;28;20212;-74
2023/09/24 04:05:25;;;;;;;7.97;5.90;;;;;;;13.49;88.55;101720.81;5096288;28;20212;-75
2023/09/24 04:07:55;;;;;;;7.20;6.53;;;;;;;13.47;87.85;101725.50;5096281;28;20236;-74
2023/09/24 04:10:27;;;;;;;8.03;7.10;;;;;;;13.45;88.44;101722.13;5095911;28;20205;-74
2023/09/24 04:12:57;;;;;;;7.53;6.93;;;;;;;13.50;88.39;101730.56;5096186;28;20197;-75
2023/09/24 04:15:28;;;;;;;7.97;6.80;;;;;;;13.52;87.44;101731.28;5096168;28;20205;-74
2023/09/24 04:17:59;;;;;;;8.30;7.50;;;;;;;13.47;88.32;101740.78;5095928;28;20638;-74
2023/09/24 04:20:33;;;;;;;9.30;6.67;;;;;;;13.52;87.75;101739.34;5096114;28;20205;-74
2023/09/24 04:23:02;;;;;;;6.43;5.83;;;;;;;13.56;88.00;101740.69;5095882;28;20235;-74
2023/09/24 04:25:31;;;;;;;8.03;6.10;;;;;;;13.61;86.96;101732.16;5095728;28;20204;-74
2023/09/24 04:27:59;;;;;;;7.50;6.70;;;;;;;13.62;87.02;101739.25;5095914;28;20204;-74
2023/09/24 04:30:28;;;;;;;8.30;6.40;;;;;;;13.63;86.57;101752.53;5095851;28;20208;-74
2023/09/24 04:32:58;;;;;;;7.40;6.70;;;;;;;13.62;86.84;101750.03;5095499;28;20725;-74
2023/09/24 04:35:27;;;;;;;8.40;6.57;;;;;;;13.58;86.52;101765.63;5095547;28;20669;-74
2023/09/24 04:37:57;;;;;;;7.83;7.03;;;;;;;13.56;87.28;101761.41;5095712;28;20208;-74
2023/09/24 04:40:27;;;;;;;7.67;6.70;;;;;;;13.56;87.03;101767.59;5095687;28;20602;-74
2023/09/24 04:42:55;;;;;;;10.30;6.10;;;;;;;13.51;87.06;101767.25;5095242;28;20679;-74
2023/09/24 04:45:24;;;;;;;9.03;7.00;;;;;;;13.55;86.68;101770.47;5095342;28;20693;-74
2023/09/24 04:47:52;;;;;;;10.60;6.53;;;;;;;13.59;86.49;101778.09;5095597;28;20205;-74
2023/09/24 04:50:23;;;;;;;8.93;7.00;;;;;;;13.56;86.52;101782.94;5095115;28;20668;-74
2023/09/24 04:52:54;;;;;;;8.37;6.47;;;;;;;13.56;86.94;101793.69;5095431;28;20201;-74
2023/09/24 04:55:25;;;;;;;8.87;6.57;;;;;;;13.49;86.89;101798.81;5095584;28;20218;-74
2023/09/24 04:57:54;;;;;;;7.70;7.00;;;;;;;13.47;86.96;101800.81;5095401;28;20207;-74
2023/09/24 05:00:23;;;;;;;8.73;7.00;;;;;;;13.49;87.10;101796.13;5095226;28;20315;-74
2023/09/24 05:02:51;;;;;;;7.53;6.90;;;;;;;13.55;86.75;101802.75;5095220;28;20201;-74
2023/09/24 05:05:20;;;;;;;8.20;7.50;;;;;;;13.57;86.82;101806.97;5095182;28;20291;-74
2023/09/24 05:07:50;;;;;;;7.87;7.07;;;;;;;13.56;87.17;101812.53;5095176;28;20295;-74
2023/09/24 05:10:19;;;;;;;8.17;7.33;;;;;;;13.56;86.46;101816.03;5094825;28;20685;-74
2023/09/24 05:12:49;;;;;;;9.07;8.17;;;;;;;13.50;87.35;101816.66;5095043;28;20208;-74
2023/09/24 05:15:17;;;;;;;10.23;9.23;;;;;;;13.51;87.69;101822.91;5095131;28;20296;-74
2023/09/24 05:17:46;;;;;;;12.37;10.30;;;;;;;13.50;87.53;101827.41;5094998;28;20295;-74
2023/09/24 05:20:15;;;;;;;11.97;10.63;;;;;;;13.49;88.11;101825.72;5094898;28;20221;-74
2023/09/24 05:22:44;;;;;;;10.73;9.63;;;;;;;13.55;87.63;101833.22;5094804;28;20295;-74
2023/09/24 05:25:13;;;;;;;11.83;10.10;;;;;;;13.58;86.90;101835.59;5094873;28;20209;-74
2023/09/24 05:27:41;;;;;;;12.77;10.20;;;;;;;13.58;87.53;101840.97;5094464;28;20693;-74
2023/09/24 05:30:12;;;;;;;12.00;10.73;;;;;;;13.56;87.98;101842.13;5094750;28;20197;-74
2023/09/24 05:32:40;;;;;;;12.63;11.20;;;;;;;13.53;87.62;101847.78;5094389;28;20219;-74
2023/09/24 05:35:09;;;;;;;14.80;11.83;;;;;;;13.56;87.78;101851.00;5094041;28;20210;-74
2023/09/24 05:37:39;;;;;;;13.70;11.50;;;;;;;13.56;87.57;101853.72;5094218;28;20741;-74
2023/09/24 05:40:10;;;;;;;13.03;11.10;;;;;;;13.56;87.75;101853.72;5094503;28;20235;-74
2023/09/24 05:42:41;;;;;;;12.63;11.37;;;;;;;13.58;87.01;101857.13;5094499;28;20193;-74
2023/09/24 05:45:11;;;;;;;17.93;12.70;;;;;;;13.56;87.64;101859.09;5094403;28;20262;-74
2023/09/24 05:47:40;;;;;;;16.50;12.57;;;;;;;13.52;88.20;101868.50;5094169;28;20667;-74
2023/09/24 05:50:09;;;;;;;14.03;12.43;;;;;;;13.47;88.74;101859.16;5094182;28;20558;-74
2023/09/24 05:52:37;;;;;;;13.60;11.33;;;;;;;13.47;88.31;101865.41;5093953;28;20651;-74
2023/09/24 05:55:07;;;;;;;13.77;11.73;;;;;;;13.49;88.84;101865.25;5094310;28;20200;-74
2023/09/24 05:57:35;;;;;;;14.77;13.10;;;;;;;13.50;88.56;101875.84;5094276;28;20283;-74
2023/09/24 06:00:05;;;;;;;16.03;13.27;;;;;;;13.51;88.60;101882.06;5094205;28;20240;-74
2023/09/24 06:02:35;;;;;;;13.43;11.80;;;;;;;13.53;88.42;101874.69;5094151;28;20209;-74
2023/09/24 06:05:07;;;;;;;15.10;12.30;;;;;;;13.52;88.57;101884.63;5093833;28;20661;-74
2023/09/24 06:07:35;;;;;;;14.13;11.97;;;;;;;13.55;88.02;101884.31;5094115;28;20189;-74
2023/09/24 06:10:05;;;;;;;16.17;12.80;;;;;;;13.56;88.37;101886.00;5094094;28;20292;-74
2023/09/24 06:12:34;;;;;;;14.43;12.43;;;;;;;13.58;88.07;101893.94;5094060;28;20276;-74
2023/09/24 06:15:03;;;;;;;14.20;12.53;;;;;;;13.61;88.25;101894.47;5093544;28;20600;-74
2023/09/24 06:17:34;;;;;;;13.63;12.03;;;;;;;13.59;88.38;101901.88;5093918;28;20209;-74
2023/09/24 06:20:03;;;;;;;13.97;12.63;;;;;;;13.53;88.76;101909.66;5093864;28;20216;-74
2023/09/24 06:22:32;;;;;;;13.67;12.30;;;;;;;13.55;89.04;101908.53;5093792;28;20204;-74
2023/09/24 06:25:00;;;;;;;14.07;11.40;;;;;;;13.53;89.24;101907.81;5093783;28;20224;-74
2023/09/24 06:27:29;;;;;;;12.87;11.67;;;;;;;13.57;89.13;101908.38;5093368;28;20681;-74
2023/09/24 06:29:57;;;;;;;14.63;11.50;;;;;;;13.58;89.49;101910.94;5093770;28;20232;-74
2023/09/24 06:32:28;;;;;;;13.97;12.27;;;;;;;13.53;89.21;101912.34;5093472;28;20212;-74
2023/09/24 06:34:59;;;;;;;14.07;12.57;;;;;;;13.59;89.41;101922.53;5093327;28;20259;-75
2023/09/24 06:37:27;;;;;;;13.30;12.10;;;;;;;13.57;88.97;101930.75;5093321;28;20637;-75
2023/09/24 06:39:56;;;;;;;15.33;11.50;;;;;;;13.62;89.07;101933.00;5093634;28;20283;-75
2023/09/24 06:42:24;;;;;;;13.00;11.70;;;;;;;13.59;89.23;101933.31;5093543;28;20308;-75
2023/09/24 06:44:54;;;;;;;12.00;10.80;;;;;;;13.62;89.19;101939.22;5093249;28;20802;-75
2023/09/24 06:47:23;;;;;;;11.93;10.33;;;;;;;13.61;89.20;101950.13;5093719;28;20205;-75
2023/09/24 06:49:51;;;;;;;13.83;9.67;;;;;;;13.62;89.46;101944.63;5093398;28;20303;-75
2023/09/24 06:52:22;;;;;;;10.97;8.77;;;;;;;13.67;89.40;101953.06;5093516;28;20218;-75
2023/09/24 06:54:50;;;;;;;12.17;9.23;;;;;;;13.62;89.12;101958.06;5093306;28;20232;-75
2023/09/24 06:57:19;;;;;;;12.10;8.47;;;;;;;13.65;89.23;101954.22;5093491;28;20208;-75
2023/09/24 06:59:47;;;;;;;9.77;8.17;;;;;;;13.70;89.14;101955.44;5093410;28;20283;-75
2023/09/24 07:02:16;;;;;;;9.03;8.13;;;;;;;13.65;89.22;101957.75;5093355;28;20225;-75
2023/09/24 07:04:45;;;;;;;9.93;7.80;;;;;;;13.71;89.39;101961.69;5093302;28;20656;-75
2023/09/24 07:07:13;;;;;;;9.70;8.50;;;;;;;13.73;90.09;101964.25;5093280;28;20204;-75
2023/09/24 07:09:43;;;;;;;9.00;7.90;;;;;;;13.76;89.82;101961.25;5093294;28;20205;-74
2023/09/24 07:12:11;;;;;;;9.20;8.27;;;;;;;13.81;89.91;101964.31;5093346;28;20201;-75
2023/09/24 07:14:40;;;;;;;7.93;7.13;;;;;;;13.86;89.47;101951.25;5093110;28;20224;-75
2023/09/24 07:17:09;;;;;;;9.50;7.93;;;;;;;13.90;89.00;101952.66;5092931;28;20209;-75
2023/09/24 07:19:37;;;;;;;9.37;8.30;;;;;;;13.92;87.70;101961.41;5093225;28;20295;-74
2023/09/24 07:22:06;;;;;;;9.40;8.40;;;;;;;13.94;87.32;101970.19;5092788;28;20697;-74
2023/09/24 07:24:34;;;;;;;8.83;7.30;;;;;;;13.90;86.35;101968.81;5093084;28;20315;-75
2023/09/24 07:27:05;;;;;;;7.37;6.70;;;;;;;13.94;86.34;101970.19;5093160;28;20250;-75
2023/09/24 07:29:33;;;;;;;8.80;7.30;;;;;;;13.97;86.29;101973.41;5093234;28;20275;-74
2023/09/24 07:32:02;;;;;;;8.63;6.53;;;;;;;13.99;85.50;101963.34;5093185;28;20212;-74
2023/09/24 07:34:30;;;;;;;7.20;6.50;;;;;;;14.03;84.79;101975.50;5092705;28;20235;-74
2023/09/24 07:36:59;;;;;;;9.57;7.70;;;;;;;14.04;84.33;101973.66;5092939;28;20201;-74
2023/09/24 07:39:42;;;;;;;12.13;8.20;;;;;;;14.03;84.51;101974.66;5093099;28;20268;-74
2023/09/24 07:42:12;;;;;;;9.50;8.50;;;;;;;14.03;84.30;101977.34;5092956;28;20320;-74
2023/09/24 07:44:41;;;;;;;9.10;8.20;;;;;;;14.05;84.22;101983.41;5092965;28;20225;-74
2023/09/24 07:47:10;;;;;;;9.87;8.87;;;;;;;14.11;84.36;101982.78;5092994;28;20201;-74
2023/09/24 07:49:38;;;;;;;10.60;8.73;;;;;;;14.13;83.85;101999.66;5092791;28;20209;-75
2023/09/24 07:52:07;;;;;;;9.97;8.20;;;;;;;14.10;83.55;102002.66;5092911;28;20264;-74
2023/09/24 07:54:35;;;;;;;8.43;7.63;;;;;;;14.17;83.97;101998.38;5092885;28;20254;-75
2023/09/24 07:57:04;;;;;;;9.03;7.30;;;;;;;14.23;84.00;102004.00;5092904;28;20262;-75
2023/09/24 07:59:34;;;;;;;10.67;7.77;;;;;;;14.23;82.88;102009.38;5094772;28;20288;-75
2023/09/24 08:02:03;;;;;;;8.23;7.43;;;;;;;14.27;82.79;102015.31;5096438;28;20221;-75
2023/09/24 08:04:31;;;;;;;10.13;7.53;;;;;;;14.24;82.34;102012.91;5096242;28;20311;-75
2023/09/24 08:07:00;;;;;;;8.33;6.50;;;;;;;14.18;81.66;102008.13;5096339;28;20205;-75
2023/09/24 08:09:29;;;;;;;8.23;6.37;;;;;;;14.27;82.13;102012.63;5096167;28;20205;-75
2023/09/24 08:11:58;;;;;;;5.90;5.30;;;;;;;14.35;82.06;102012.69;5094477;28;20226;-75
2023/09/24 08:14:27;;;;;;;5.83;5.27;;;;;;;14.39;80.76;102016.78;5095455;28;20224;-76
2023/09/24 08:16:56;;;;;;;4.93;4.03;;;;;;;14.40;78.85;102021.19;5096403;28;20212;-76
2023/09/24 08:19:30;;;;;;;6.90;4.43;;;;;;;14.44;78.91;102016.34;5095864;28;20216;-75
2023/09/24 08:21:59;;;;;;;145.53;135.80;;;;;;;14.52;79.83;102028.03;5095921;28;20298;-75
2023/09/24 08:24:27;;;;;;;12.43;11.23;;;;;;;14.57;79.62;102024.88;5095672;28;20751;-75
2023/09/24 08:26:56;;;;;;;8.27;7.57;;;;;;;14.58;78.62;102023.88;5095802;28;20240;-76
2023/09/24 08:29:25;;;;;;;17.93;16.33;;;;;;;14.55;77.44;102024.19;5096526;28;20207;-75
2023/09/24 08:31:53;;;;;;;5.13;4.07;;;;;;;14.63;77.85;102027.78;5095454;28;20299;-76
2023/09/24 08:34:23;;;;;;;562.03;506.03;;;;;;;14.75;78.34;102019.47;5095531;28;20757;-76
2023/09/24 08:36:52;;;;;;;58.13;53.03;;;;;;;14.90;78.03;102017.88;5095793;28;20200;-76
2023/09/24 08:39:21;;;;;;;771.50;692.63;;;;;;;15.05;78.30;102019.88;5095790;28;20209;-75
2023/09/24 08:41:52;;;;;;;66.03;60.73;;;;;;;15.18;78.31;102028.38;5095652;28;20231;-76
2023/09/24 08:44:27;;;;;;;14.37;13.13;;;;;;;15.27;77.66;102021.19;5096266;28;20274;-76
2023/09/24 08:46:56;;;;;;;119.00;91.80;;;;;;;15.23;77.06;102025.22;5095761;28;20262;-75
2023/09/24 08:49:27;;;;;;;8.07;6.77;;;;;;;15.21;76.26;102021.81;5095241;28;20670;-75
2023/09/24 08:51:57;;;;;;;7.43;5.70;;;;;;;15.24;76.48;102021.47;5095651;28;20185;-75
2023/09/24 08:54:26;;;;;;;21.53;19.50;;;;;;;15.34;76.23;102016.00;5095149;28;20307;-76
2023/09/24 08:56:55;;;;;;;9.37;5.90;;;;;;;15.43;74.77;102023.13;5095026;28;20209;-76
2023/09/24 08:59:25;;;;;;;5.37;4.73;;;;;;;15.51;74.49;102017.81;5095473;28;20603;-76
2023/09/24 09:01:55;;;;;;;21.30;19.30;;;;;;;15.62;75.84;102010.25;5095799;28;20643;-75
2023/09/24 09:04:25;;;;;;;66.20;60.70;;;;;;;15.75;75.36;102020.63;5095007;28;20672;-76
2023/09/24 09:06:55;;;;;;;8.53;5.90;;;;;;;15.85;74.74;102015.06;5094921;28;20204;-75
2023/09/24 09:09:27;;;;;;;57.80;49.00;;;;;;;15.92;75.87;102011.56;5094820;28;20247;-75
2023/09/24 09:11:56;;;;;;;4.90;3.87;;;;;;;16.06;74.41;102010.91;5094288;28;20586;-76
2023/09/24 09:14:35;;;;;;;5.37;4.87;;;;;;;16.08;71.84;102014.28;5094668;28;20729;-76
2023/09/24 09:17:03;;;;;;;8.17;7.27;;;;;;;16.19;71.88;102007.75;5094978;28;20224;-79
2023/09/24 09:19:52;;;;;;;7.70;6.20;;;;;;;16.22;72.46;102007.41;5095025;28;20715;-78
2023/09/24 09:22:21;;;;;;;3.17;2.60;;;;;;;16.29;71.29;102008.44;5094238;28;20212;-78
2023/09/24 09:25:01;;;;;;;4.53;3.00;;;;;;;16.29;71.56;102008.44;5094834;28;20228;-78
2023/09/24 09:27:32;;;;;;;4.83;3.00;;;;;;;16.31;71.34;102006.38;5094700;28;20275;-79
2023/09/24 09:30:15;;;;;;;4.37;3.13;;;;;;;16.38;70.66;102009.28;5094620;28;20680;-78
2023/09/24 09:32:45;;;;;;;3.97;2.60;;;;;;;16.36;70.02;102009.44;5094755;28;20189;-78
2023/09/24 09:35:16;;;;;;;4.53;3.17;;;;;;;16.39;70.79;102019.06;5094452;28;20682;-78
2023/09/24 09:37:47;;;;;;;5.20;3.07;;;;;;;16.27;70.21;102015.84;5094736;28;20221;-78
2023/09/24 09:40:18;;;;;;;4.87;3.40;;;;;;;16.26;71.47;102008.75;5094387;28;20704;-78
2023/09/24 09:42:50;;;;;;;3.27;2.60;;;;;;;16.40;71.41;102005.41;5094430;28;20801;-78
2023/09/24 09:45:20;;;;;;;3.20;2.73;;;;;;;16.57;71.00;101996.31;5094661;28;20242;-78
2023/09/24 09:48:00;;;;;;;4.07;2.73;;;;;;;16.58;68.48;102003.41;5094177;28;20588;-78
2023/09/24 09:50:34;;;;;;;3.73;2.83;;;;;;;16.88;68.90;102003.75;5093889;28;20251;-78
2023/09/24 09:53:08;;;;;;;3.40;2.70;;;;;;;16.92;67.80;102002.38;5095118;28;20230;-78
2023/09/24 09:55:39;;;;;;;4.20;2.67;;;;;;;17.06;67.99;102002.50;5093990;28;20193;-78
2023/09/24 09:58:10;;;;;;;4.43;2.77;;;;;;;17.10;66.21;101997.59;5094347;28;20224;-78
2023/09/24 10:00:52;;;;;;;4.13;2.80;;;;;;;17.28;68.69;101991.97;5094045;28;20196;-78
2023/09/24 10:03:22;;;;;;;3.00;2.33;;;;;;;17.36;66.53;101992.81;5094054;28;20228;-78
2023/09/24 10:05:54;;;;;;;4.53;2.53;;;;;;;17.54;67.01;101996.13;5095263;28;20201;-78
2023/09/24 10:08:37;;;;;;;3.83;2.80;;;;;;;17.56;67.14;101987.88;5094210;28;20200;-78
2023/09/24 10:11:05;;;;;;;4.10;3.10;;;;;;;17.52;66.17;102003.59;5094183;28;20197;-78
2023/09/24 10:13:48;;;;;;;3.20;2.90;;;;;;;17.70;66.46;101995.25;5093962;28;20278;-78
2023/09/24 10:16:31;;;;;;;5.23;2.80;;;;;;;17.84;64.12;101996.38;5093747;28;20705;-78
2023/09/24 10:19:02;;;;;;;3.70;2.50;;;;;;;17.98;66.09;101992.91;5093668;28;20621;-78
2023/09/24 10:21:33;;;;;;;5.40;4.60;;;;;;;18.06;65.08;101990.13;5093015;28;20196;-64
2023/09/24 10:24:47;;;;;;;3.50;3.20;;;;;;;18.18;62.43;101988.72;5092975;28;20320;-63
2023/09/24 10:27:16;;;;;;;80.60;72.63;;;;;;;18.27;66.02;101982.19;5093377;28;20572;-63
2023/09/24 10:30:05;;;;;;;7.17;6.20;;;;;;;18.41;63.71;101994.97;5093347;28;20205;-63
2023/09/24 10:32:50;;;;;;;4.00;3.13;;;;;;;18.50;60.42;101999.34;5093348;28;20662;-63
2023/09/24 10:35:19;;;;;;;10.07;7.63;;;;;;;18.40;60.40;101998.72;5093494;28;20204;-64
2023/09/24 10:38:04;;;;;;;5.43;3.00;;;;;;;18.46;60.16;102005.28;5093197;28;20212;-62
2023/09/24 10:40:34;;;;;;;8.50;2.97;;;;;;;18.62;60.55;102000.59;5093187;28;20185;-64
2023/09/24 10:43:23;;;;;;;5.50;3.40;;;;;;;18.77;58.79;102003.34;5092793;28;20702;-64
2023/09/24 10:45:52;;;;;;;3.77;2.40;;;;;;;18.87;58.48;102000.41;5085211;28;20262;-64
2023/09/24 10:48:23;;;;;;;4.50;2.00;;;;;;;18.81;57.52;101996.53;5092981;28;20189;-64
2023/09/24 10:51:17;;;;;;;8.87;2.47;;;;;;;18.96;59.41;102007.41;5092963;28;20221;-76
2023/09/24 10:53:47;;;;;;;5.10;2.10;;;;;;;18.87;56.53;102003.94;5093064;28;20227;-76
2023/09/24 10:56:16;;;;;;;8.50;4.27;;;;;;;19.07;58.16;101998.84;5092762;28;20201;-76
2023/09/24 10:58:50;;;;;;;4.83;2.80;;;;;;;19.25;59.38;101999.31;5092027;28;20240;-75
2023/09/24 11:01:30;;;;;;;3.57;2.50;;;;;;;19.44;60.64;101996.06;5091713;28;20280;-75
2023/09/24 11:03:59;;;;;;;7.43;3.83;;;;;;;19.51;58.64;101988.88;5091960;28;20724;-73
2023/09/24 11:06:31;;;;;;;3.17;2.37;;;;;;;19.54;55.95;101993.06;5092781;28;20216;-76
2023/09/24 11:09:18;;;;;;;2.43;2.23;;;;;;;19.49;55.67;101985.47;5093408;28;20217;-76
2023/09/24 11:11:47;;;;;;;2.70;2.30;;;;;;;19.71;57.75;101981.81;5093022;28;20192;-76
2023/09/24 11:14:22;;;;;;;15.57;5.87;;;;;;;19.85;57.26;101980.09;5092857;28;20224;-75
2023/09/24 11:16:52;;;;;;;8.53;3.23;;;;;;;19.90;56.11;101974.09;5093014;28;20193;-77
2023/09/24 11:19:43;;;;;;;5.53;2.70;;;;;;;20.06;55.52;101987.44;5093068;28;20232;-75
2023/09/24 11:22:18;;;;;;;3.80;2.73;;;;;;;19.73;55.39;101987.88;5092947;28;20219;-62
2023/09/24 11:24:52;;;;;;;5.40;2.30;;;;;;;20.01;55.95;101987.16;5092079;28;20769;-76
2023/09/24 11:27:22;;;;;;;28.27;25.33;;;;;;;20.11;56.19;101984.97;5092568;28;20184;-75
2023/09/24 11:30:00;;;;;;;3.80;3.13;;;;;;;20.13;56.49;101988.34;5092919;28;20295;-75
2023/09/24 11:32:29;;;;;;;4.43;2.50;;;;;;;19.96;53.80;101989.63;5093156;28;20230;-76
2023/09/24 11:35:08;;;;;;;2.63;2.43;;;;;;;20.06;56.89;101990.16;5095749;28;20233;-76
2023/09/24 11:37:51;;;;;;;3.33;2.70;;;;;;;19.87;54.19;101988.03;5096499;28;20578;-76